createdAt,value
2018-09-21T00:00:03.189Z,22.70
2018-09-21T00:02:31.715Z,22.70
2018-09-21T00:05:00.048Z,22.70
2018-09-21T00:07:28.353Z,22.70
2018-09-21T00:09:56.610Z,22.70
2018-09-21T00:12:24.982Z,22.70
2018-09-21T00:14:53.368Z,22.60
2018-09-21T00:17:21.650Z,22.60
2018-09-21T00:19:49.888Z,22.50
2018-09-21T00:22:18.229Z,22.50
2018-09-21T00:24:46.774Z,22.50
2018-09-21T00:27:15.181Z,22.50
2018-09-21T00:29:43.557Z,22.50
2018-09-21T00:32:11.913Z,22.60
2018-09-21T00:34:40.199Z,22.50
2018-09-21T00:37:09.269Z,22.50
2018-09-21T00:39:37.607Z,22.50
2018-09-21T00:42:05.901Z,22.50
2018-09-21T00:44:34.236Z,22.50
2018-09-21T00:47:02.602Z,22.50
2018-09-21T00:49:31.431Z,22.50
2018-09-21T00:51:59.687Z,22.50
2018-09-21T00:54:27.970Z,22.50
2018-09-21T00:56:56.392Z,22.50
2018-09-21T00:59:24.916Z,22.50
2018-09-21T01:01:53.459Z,22.50
2018-09-21T01:04:32.780Z,22.40
2018-09-21T01:07:01.532Z,22.40
2018-09-21T01:09:29.956Z,22.40
2018-09-21T01:11:58.276Z,22.40
2018-09-21T01:14:26.573Z,22.40
2018-09-21T01:16:54.970Z,22.40
2018-09-21T01:19:24.584Z,22.40
2018-09-21T01:21:53.518Z,22.30
2018-09-21T01:24:22.014Z,22.30
2018-09-21T01:26:50.458Z,22.30
2018-09-21T01:29:18.900Z,22.30
2018-09-21T01:31:47.745Z,22.30
2018-09-21T01:34:16.603Z,22.30
2018-09-21T01:36:44.902Z,22.30
2018-09-21T01:39:13.383Z,22.30
2018-09-21T01:41:41.829Z,22.30
2018-09-21T01:44:10.503Z,22.30
2018-09-21T01:46:39.549Z,22.30
2018-09-21T01:49:08.189Z,22.30
2018-09-21T01:51:36.652Z,22.20
2018-09-21T01:54:05.180Z,22.20
2018-09-21T01:56:33.502Z,22.20
2018-09-21T01:59:02.022Z,22.20
2018-09-21T02:01:30.459Z,22.20
2018-09-21T02:03:58.742Z,22.20
2018-09-21T02:06:26.967Z,22.20
2018-09-21T02:08:55.246Z,22.20
2018-09-21T02:11:23.596Z,22.20
2018-09-21T02:13:52.397Z,22.20
2018-09-21T02:16:20.694Z,22.20
2018-09-21T02:18:49.541Z,22.20
2018-09-21T02:21:18.099Z,22.20
2018-09-21T02:23:48.845Z,22.10
2018-09-21T02:26:17.220Z,22.10
2018-09-21T02:28:45.665Z,22.10
2018-09-21T02:31:13.978Z,22.10
2018-09-21T02:33:42.283Z,22.10
2018-09-21T02:36:10.596Z,22.10
2018-09-21T02:38:38.976Z,22.10
2018-09-21T02:41:07.357Z,22.10
2018-09-21T02:43:35.702Z,22.10
2018-09-21T02:46:03.986Z,22.00
2018-09-21T02:48:32.252Z,22.00
2018-09-21T02:51:00.598Z,22.00
2018-09-21T02:53:28.880Z,22.00
2018-09-21T02:55:57.069Z,22.00
2018-09-21T02:58:25.339Z,22.00
2018-09-21T03:00:53.744Z,22.00
2018-09-21T03:03:21.884Z,22.00
2018-09-21T03:05:50.177Z,22.00
2018-09-21T03:08:18.576Z,21.90
2018-09-21T03:10:46.992Z,21.90
2018-09-21T03:13:15.366Z,21.90
2018-09-21T03:15:43.762Z,21.90
2018-09-21T03:18:12.096Z,21.90
2018-09-21T03:20:40.348Z,21.90
2018-09-21T03:23:08.726Z,21.90
2018-09-21T03:25:37.045Z,21.80
2018-09-21T03:28:05.389Z,21.90
2018-09-21T03:30:33.868Z,21.90
2018-09-21T03:33:02.189Z,21.90
2018-09-21T03:35:31.325Z,21.90
2018-09-21T03:37:59.818Z,21.90
2018-09-21T03:40:28.196Z,21.90
2018-09-21T03:42:56.530Z,21.90
2018-09-21T03:45:24.965Z,21.90
2018-09-21T03:47:53.223Z,21.80
2018-09-21T03:50:21.636Z,21.80
2018-09-21T03:52:50.012Z,21.80
2018-09-21T03:55:18.461Z,21.80
2018-09-21T03:57:47.057Z,21.80
2018-09-21T04:00:15.602Z,21.80
2018-09-21T04:02:44.139Z,21.90
2018-09-21T04:05:12.496Z,21.90
2018-09-21T04:07:40.936Z,21.80
2018-09-21T04:10:09.247Z,21.80
2018-09-21T04:12:37.626Z,21.80
2018-09-21T04:15:06.702Z,21.80
2018-09-21T04:17:35.185Z,21.80
2018-09-21T04:20:03.662Z,21.80
2018-09-21T04:22:32.382Z,21.80
2018-09-21T04:25:00.853Z,21.80
2018-09-21T04:27:29.799Z,21.80
2018-09-21T04:29:58.755Z,21.80
2018-09-21T04:32:30.723Z,21.80
2018-09-21T04:34:59.212Z,21.80
2018-09-21T04:37:27.770Z,21.80
2018-09-21T04:39:56.282Z,21.80
2018-09-21T04:42:25.383Z,21.80
2018-09-21T04:44:53.942Z,21.80
2018-09-21T04:47:22.486Z,21.80
2018-09-21T04:49:50.941Z,21.80
2018-09-21T04:52:26.011Z,21.80
2018-09-21T04:54:54.425Z,21.80
2018-09-21T04:57:22.826Z,21.80
2018-09-21T04:59:51.202Z,21.80
2018-09-21T05:02:19.699Z,21.80
2018-09-21T05:04:48.923Z,21.80
2018-09-21T05:07:17.406Z,21.80
2018-09-21T05:09:45.909Z,21.90
2018-09-21T05:12:14.407Z,21.90
2018-09-21T05:14:42.829Z,21.90
2018-09-21T05:17:11.414Z,21.90
2018-09-21T05:19:39.848Z,22.00
2018-09-21T05:22:08.239Z,22.00
2018-09-21T05:24:36.774Z,22.00
2018-09-21T05:27:05.178Z,22.10
2018-09-21T05:29:33.518Z,22.10
2018-09-21T05:32:01.851Z,22.10
2018-09-21T05:34:30.194Z,22.20
2018-09-21T05:36:58.568Z,22.20
2018-09-21T05:39:27.047Z,22.30
2018-09-21T05:41:55.482Z,22.30
2018-09-21T05:44:24.532Z,22.30
2018-09-21T05:46:52.937Z,22.40
2018-09-21T05:49:21.736Z,22.40
2018-09-21T05:51:50.280Z,22.40
2018-09-21T05:54:18.661Z,22.50
2018-09-21T05:56:47.898Z,22.50
2018-09-21T05:59:16.528Z,22.50
2018-09-21T06:01:44.863Z,22.60
2018-09-21T06:04:13.476Z,22.60
2018-09-21T06:06:41.920Z,22.70
2018-09-21T06:09:12.648Z,22.80
2018-09-21T06:11:41.722Z,22.80
2018-09-21T06:14:11.011Z,22.90
2018-09-21T06:16:39.379Z,22.90
2018-09-21T06:19:08.254Z,23.00
2018-09-21T06:21:36.820Z,23.10
2018-09-21T06:24:05.822Z,23.10
2018-09-21T06:26:34.331Z,23.20
2018-09-21T06:29:02.886Z,23.30
2018-09-21T06:31:31.293Z,23.30
2018-09-21T06:33:59.817Z,23.30
2018-09-21T06:36:28.320Z,23.40
2018-09-21T06:38:57.122Z,23.40
2018-09-21T06:41:25.660Z,23.50
2018-09-21T06:43:54.019Z,23.50
2018-09-21T06:46:22.325Z,23.60
2018-09-21T06:48:50.932Z,23.60
2018-09-21T06:51:19.372Z,23.60
2018-09-21T06:53:47.808Z,23.70
2018-09-21T06:56:16.267Z,23.70
2018-09-21T06:58:44.757Z,23.70
2018-09-21T07:01:13.538Z,23.80
2018-09-21T07:03:42.141Z,23.80
2018-09-21T07:06:10.483Z,23.80
2018-09-21T07:08:39.047Z,23.90
2018-09-21T07:11:07.361Z,23.90
2018-09-21T07:13:35.877Z,23.90
2018-09-21T07:16:04.442Z,23.90
2018-09-21T07:18:34.199Z,23.90
2018-09-21T07:21:02.538Z,23.90
2018-09-21T07:23:30.885Z,23.90
2018-09-21T07:25:59.319Z,23.80
2018-09-21T07:28:34.855Z,23.90
2018-09-21T07:31:03.289Z,23.80
2018-09-21T07:33:31.545Z,23.80
2018-09-21T07:35:59.916Z,23.90
2018-09-21T07:38:28.272Z,23.90
2018-09-21T07:40:56.649Z,23.90
2018-09-21T07:43:25.402Z,23.90
2018-09-21T07:45:53.827Z,23.90
2018-09-21T07:48:22.119Z,24.00
2018-09-21T07:50:50.490Z,24.10
2018-09-21T07:53:18.823Z,24.20
2018-09-21T07:55:47.096Z,24.20
2018-09-21T07:58:15.523Z,24.30
2018-09-21T08:00:43.864Z,24.30
2018-09-21T08:03:12.111Z,24.40
2018-09-21T08:05:40.527Z,24.50
2018-09-21T08:08:09.063Z,24.50
2018-09-21T08:10:37.473Z,24.50
2018-09-21T08:13:05.772Z,24.60
2018-09-21T08:15:34.383Z,24.60
2018-09-21T08:18:02.824Z,24.70
2018-09-21T08:20:31.311Z,24.70
2018-09-21T08:22:59.766Z,24.80
2018-09-21T08:25:28.082Z,24.80
2018-09-21T08:27:56.631Z,24.80
2018-09-21T08:30:26.259Z,24.80
2018-09-21T08:32:54.704Z,24.80
2018-09-21T08:35:23.090Z,24.90
2018-09-21T08:37:51.670Z,24.90
2018-09-21T08:40:20.094Z,24.90
2018-09-21T08:42:48.483Z,24.90
2018-09-21T08:45:16.922Z,24.90
2018-09-21T08:47:45.743Z,24.90
2018-09-21T08:50:14.258Z,25.00
2018-09-21T08:52:43.256Z,25.00
2018-09-21T08:55:12.143Z,25.00
2018-09-21T08:57:40.787Z,25.10
2018-09-21T09:00:10.127Z,25.10
2018-09-21T09:02:39.043Z,25.10
2018-09-21T09:05:07.406Z,25.20
2018-09-21T09:07:35.653Z,25.20
2018-09-21T09:10:04.683Z,25.20
2018-09-21T09:12:33.040Z,25.20
2018-09-21T09:15:01.542Z,25.30
2018-09-21T09:17:30.014Z,25.30
2018-09-21T09:19:58.400Z,25.40
2018-09-21T09:22:26.715Z,25.40
2018-09-21T09:24:55.286Z,25.40
2018-09-21T09:27:23.922Z,25.40
2018-09-21T09:29:52.655Z,25.40
2018-09-21T09:32:20.934Z,25.40
2018-09-21T09:34:49.252Z,25.40
2018-09-21T09:37:17.605Z,25.50
2018-09-21T09:39:46.152Z,25.60
2018-09-21T09:42:14.447Z,25.60
2018-09-21T09:44:43.435Z,25.60
2018-09-21T09:47:18.497Z,25.60
2018-09-21T09:49:46.830Z,25.70
2018-09-21T09:52:15.211Z,25.80
2018-09-21T09:54:44.461Z,25.80
2018-09-21T09:57:12.826Z,25.80
2018-09-21T09:59:41.293Z,25.80
2018-09-21T10:02:09.665Z,25.90
2018-09-21T10:04:38.054Z,25.90
2018-09-21T10:07:07.673Z,25.90
2018-09-21T10:09:37.373Z,25.90
2018-09-21T10:12:05.888Z,25.90
2018-09-21T10:14:34.675Z,26.00
2018-09-21T10:17:03.025Z,26.00
2018-09-21T10:19:31.355Z,26.00
2018-09-21T10:21:59.684Z,26.00
2018-09-21T10:24:28.115Z,26.00
2018-09-21T10:26:56.462Z,26.00
2018-09-21T10:29:24.896Z,26.00
2018-09-21T10:31:53.348Z,26.00
2018-09-21T10:34:22.307Z,26.00
2018-09-21T10:36:50.840Z,26.00
2018-09-21T10:39:19.428Z,26.00
2018-09-21T10:41:47.850Z,26.10
2018-09-21T10:44:16.453Z,26.10
2018-09-21T10:46:45.429Z,26.20
2018-09-21T10:49:13.995Z,26.20
2018-09-21T10:51:42.314Z,26.30
2018-09-21T10:54:10.872Z,26.30
2018-09-21T10:56:39.854Z,26.30
2018-09-21T10:59:08.422Z,26.40
2018-09-21T11:01:37.071Z,26.40
2018-09-21T11:04:05.589Z,26.50
2018-09-21T11:06:34.092Z,26.50
2018-09-21T11:09:02.540Z,26.60
2018-09-21T11:11:31.847Z,26.60
2018-09-21T11:14:00.455Z,26.60
2018-09-21T11:16:29.881Z,26.70
2018-09-21T11:18:58.998Z,26.80
2018-09-21T11:21:27.454Z,26.80
2018-09-21T11:23:55.772Z,26.90
2018-09-21T11:26:24.362Z,27.00
2018-09-21T11:28:53.051Z,27.10
2018-09-21T11:31:22.300Z,27.20
2018-09-21T11:33:51.391Z,27.20
2018-09-21T11:36:19.800Z,27.20
2018-09-21T11:38:48.315Z,27.20
2018-09-21T11:41:16.717Z,27.20
2018-09-21T11:43:45.512Z,27.30
2018-09-21T11:46:13.838Z,27.40
2018-09-21T11:48:42.379Z,27.40
2018-09-21T11:51:10.889Z,27.40
2018-09-21T11:53:39.348Z,27.50
2018-09-21T11:56:07.843Z,27.50
2018-09-21T11:58:36.356Z,27.60
2018-09-21T12:01:04.832Z,27.70
2018-09-21T12:03:33.429Z,27.80
2018-09-21T12:06:05.681Z,27.90
2018-09-21T12:08:38.338Z,28.00
2018-09-21T12:11:06.937Z,28.10
2018-09-21T12:13:36.113Z,28.10
2018-09-21T12:16:04.812Z,28.00
2018-09-21T12:18:33.452Z,28.00
2018-09-21T12:21:02.200Z,28.00
2018-09-21T12:23:31.083Z,28.00
2018-09-21T12:25:59.671Z,28.10
2018-09-21T12:28:28.384Z,28.00
2018-09-21T12:30:56.823Z,28.10
2018-09-21T12:33:25.451Z,28.10
2018-09-21T12:35:53.859Z,28.10
2018-09-21T12:38:22.343Z,28.10
2018-09-21T12:40:50.735Z,28.10
2018-09-21T12:43:19.145Z,28.10
2018-09-21T12:45:48.541Z,28.00
2018-09-21T12:48:18.164Z,28.00
2018-09-21T12:50:46.719Z,27.90
2018-09-21T12:53:15.785Z,27.90
2018-09-21T12:55:44.249Z,27.90
2018-09-21T12:58:12.703Z,27.80
2018-09-21T13:00:46.683Z,27.80
2018-09-21T13:03:15.173Z,27.70
2018-09-21T13:05:43.730Z,27.70
2018-09-21T13:08:12.434Z,27.70
2018-09-21T13:10:41.221Z,27.70
2018-09-21T13:13:09.589Z,27.60
2018-09-21T13:15:38.195Z,27.60
2018-09-21T13:18:06.941Z,27.60
2018-09-21T13:20:36.843Z,27.50
2018-09-21T13:23:05.626Z,27.50
2018-09-21T13:25:34.296Z,27.50
2018-09-21T13:28:02.951Z,27.40
2018-09-21T13:30:32.521Z,27.30
2018-09-21T13:33:01.431Z,27.30
2018-09-21T13:35:30.833Z,27.20
2018-09-21T13:37:59.802Z,27.10
2018-09-21T13:40:43.659Z,27.10
2018-09-21T13:43:12.363Z,27.10
2018-09-21T13:45:41.085Z,27.00
2018-09-21T13:48:09.865Z,27.00
2018-09-21T13:50:38.987Z,27.00
2018-09-21T13:53:07.727Z,27.00
2018-09-21T13:55:36.161Z,26.90
2018-09-21T13:58:04.635Z,26.90
2018-09-21T14:00:33.084Z,26.90
2018-09-21T14:03:01.764Z,27.00
2018-09-21T14:05:30.290Z,27.00
2018-09-21T14:07:58.791Z,26.90
2018-09-21T14:10:27.297Z,26.90
2018-09-21T14:12:55.831Z,26.90
2018-09-21T14:15:24.469Z,26.90
2018-09-21T14:17:53.062Z,26.80
2018-09-21T14:20:21.650Z,26.80
2018-09-21T14:22:50.853Z,26.80
2018-09-21T14:25:19.372Z,26.90
2018-09-21T14:27:47.961Z,26.80
2018-09-21T14:30:17.282Z,26.80
2018-09-21T14:32:45.775Z,26.80
2018-09-21T14:35:14.908Z,26.80
2018-09-21T14:37:47.176Z,26.70
2018-09-21T14:40:15.843Z,26.60
2018-09-21T14:42:45.560Z,26.00
2018-09-21T14:45:14.845Z,25.10
2018-09-21T14:47:43.527Z,24.40
2018-09-21T14:50:12.695Z,23.80
2018-09-21T14:52:41.436Z,23.00
2018-09-21T14:55:10.532Z,22.70
2018-09-21T14:57:39.410Z,22.30
2018-09-21T15:00:08.292Z,22.00
2018-09-21T15:02:43.242Z,21.70
2018-09-21T15:05:13.592Z,21.60
2018-09-21T15:07:43.915Z,21.40
2018-09-21T15:10:13.092Z,21.30
2018-09-21T15:12:41.965Z,21.00
2018-09-21T15:15:10.685Z,20.70
2018-09-21T15:17:39.970Z,20.60
2018-09-21T15:20:14.980Z,20.60
2018-09-21T15:22:43.322Z,20.50
2018-09-21T15:28:02.011Z,20.10
2018-09-21T15:30:30.855Z,20.20
2018-09-21T15:32:59.644Z,20.00
2018-09-21T15:35:28.506Z,20.20
2018-09-21T15:37:57.057Z,20.10
2018-09-21T15:40:25.871Z,20.20
2018-09-21T15:42:56.328Z,20.20
2018-09-21T15:45:26.132Z,20.00
2018-09-21T15:47:55.015Z,20.00
2018-09-21T15:50:23.809Z,19.90
2018-09-21T15:52:52.609Z,19.60
2018-09-21T15:55:21.305Z,19.60
2018-09-21T15:57:49.944Z,19.50
2018-09-21T16:00:18.317Z,19.30
2018-09-21T16:02:46.971Z,19.30
2018-09-21T16:05:15.543Z,19.10
2018-09-21T16:07:44.611Z,19.10
2018-09-21T16:10:21.743Z,19.20
2018-09-21T16:12:50.592Z,19.20
2018-09-21T16:15:19.191Z,19.30
2018-09-21T16:17:48.243Z,19.20
2018-09-21T16:20:17.923Z,19.00
2018-09-21T16:22:46.635Z,18.60
2018-09-21T16:25:15.227Z,18.70
2018-09-21T16:27:43.837Z,18.70
2018-09-21T16:30:12.310Z,18.70
2018-09-21T16:32:40.815Z,18.60
2018-09-21T16:35:09.290Z,18.60
2018-09-21T16:37:37.856Z,18.70
2018-09-21T16:40:07.066Z,18.70
2018-09-21T16:42:35.531Z,18.70
2018-09-21T16:45:05.146Z,18.60
2018-09-21T16:47:35.021Z,18.60
2018-09-21T16:50:03.838Z,18.70
2018-09-21T16:52:32.504Z,18.60
2018-09-21T16:55:01.324Z,18.50
2018-09-21T16:57:29.922Z,18.40
2018-09-21T16:59:58.499Z,18.40
2018-09-21T17:02:27.246Z,18.50
2018-09-21T17:04:55.829Z,18.50
2018-09-21T17:07:24.466Z,18.40
2018-09-21T17:09:53.336Z,18.40
2018-09-21T17:12:21.769Z,18.50
2018-09-21T17:14:50.488Z,18.50
2018-09-21T17:17:19.182Z,18.40
2018-09-21T17:19:48.409Z,18.30
2018-09-21T17:22:16.996Z,18.30
2018-09-21T17:24:45.619Z,18.30
2018-09-21T17:27:14.146Z,18.40
2018-09-21T17:29:43.050Z,18.40
2018-09-21T17:32:12.451Z,18.50
2018-09-21T17:34:46.748Z,18.60
2018-09-21T17:37:15.324Z,18.80
2018-09-21T17:39:58.286Z,18.90
2018-09-21T17:42:28.137Z,18.90
2018-09-21T17:44:56.782Z,19.00
2018-09-21T17:47:25.231Z,19.10
2018-09-21T17:50:31.460Z,19.20
2018-09-21T17:53:05.934Z,19.20
2018-09-21T17:55:35.146Z,19.30
2018-09-21T17:58:03.703Z,19.40
2018-09-21T18:00:32.109Z,19.40
2018-09-21T18:03:00.604Z,19.50
2018-09-21T18:05:29.413Z,19.50
2018-09-21T18:07:58.152Z,19.60
2018-09-21T18:10:29.010Z,19.70
2018-09-21T18:12:58.279Z,19.70
2018-09-21T18:15:27.272Z,19.70
2018-09-21T18:17:55.989Z,19.70
2018-09-21T18:20:24.856Z,19.70
2018-09-21T18:22:53.659Z,19.70
2018-09-21T18:25:22.521Z,19.40
2018-09-21T18:27:51.223Z,19.30
2018-09-21T18:30:19.939Z,19.30
2018-09-21T18:32:48.766Z,19.40
2018-09-21T18:35:17.507Z,19.50
2018-09-21T18:37:45.930Z,19.50
2018-09-21T18:40:14.714Z,19.50
2018-09-21T18:42:43.307Z,19.50
2018-09-21T18:45:11.813Z,19.30
2018-09-21T18:47:40.424Z,19.10
2018-09-21T18:50:09.202Z,19.20
2018-09-21T18:52:38.788Z,19.20
2018-09-21T18:55:07.197Z,19.20
2018-09-21T18:57:35.598Z,19.20
2018-09-21T19:00:03.976Z,19.20
2018-09-21T19:02:32.357Z,19.10
2018-09-21T19:05:00.997Z,19.10
2018-09-21T19:07:31.473Z,19.20
2018-09-21T19:10:00.510Z,19.10
2018-09-21T19:12:29.459Z,19.20
2018-09-21T19:14:57.993Z,19.00
2018-09-21T19:17:26.505Z,19.10
2018-09-21T19:19:55.064Z,19.00
2018-09-21T19:22:23.885Z,19.10
2018-09-21T19:24:52.500Z,19.10
2018-09-21T19:27:21.167Z,19.10
2018-09-21T19:29:49.669Z,19.10
2018-09-21T19:32:18.164Z,19.10
2018-09-21T19:34:46.820Z,19.10
2018-09-21T19:37:15.400Z,19.10
2018-09-21T19:39:44.093Z,19.10
2018-09-21T19:42:13.091Z,19.10
2018-09-21T19:44:44.572Z,18.90
2018-09-21T19:47:13.472Z,18.90
2018-09-21T19:49:42.942Z,18.90
2018-09-21T19:52:11.838Z,18.80
2018-09-21T19:54:42.054Z,18.80
2018-09-21T19:57:11.198Z,18.80
2018-09-21T19:59:40.772Z,18.80
2018-09-21T20:02:09.795Z,18.80
2018-09-21T20:04:38.653Z,18.90
2018-09-21T20:07:08.708Z,18.90
2018-09-21T20:09:38.110Z,19.00
2018-09-21T20:12:07.182Z,18.90
2018-09-21T20:14:35.848Z,18.90
2018-09-21T20:17:11.152Z,18.80
2018-09-21T20:19:46.934Z,18.70
2018-09-21T20:22:17.029Z,18.70
2018-09-21T20:24:46.066Z,18.60
2018-09-21T20:27:14.741Z,18.60
2018-09-21T20:29:43.317Z,18.60
2018-09-21T20:32:17.899Z,18.60
2018-09-21T20:34:46.423Z,18.50
2018-09-21T20:37:16.165Z,18.40
2018-09-21T20:39:44.571Z,18.40
2018-09-21T20:42:14.209Z,18.50
2018-09-21T20:44:42.883Z,18.50
2018-09-21T20:47:11.484Z,18.50
2018-09-21T20:49:40.208Z,18.50
2018-09-21T20:52:08.744Z,18.50
2018-09-21T20:54:37.583Z,18.50
2018-09-21T20:57:05.758Z,18.50
2018-09-21T20:59:34.075Z,18.50
2018-09-21T21:02:02.874Z,18.50
2018-09-21T21:04:32.249Z,18.40
2018-09-21T21:07:00.726Z,18.40
2018-09-21T21:09:29.170Z,18.40
2018-09-21T21:11:57.811Z,18.40
2018-09-21T21:14:26.620Z,18.40
2018-09-21T21:16:55.712Z,18.40
2018-09-21T21:19:27.140Z,18.40
2018-09-21T21:21:56.477Z,18.40
2018-09-21T21:24:25.051Z,18.50
2018-09-21T21:26:53.561Z,18.50
2018-09-21T21:29:22.033Z,18.40
2018-09-21T21:31:50.707Z,18.40
2018-09-21T21:34:19.136Z,18.50
2018-09-21T21:36:47.787Z,18.40
2018-09-21T21:39:16.374Z,18.40
2018-09-21T21:41:44.885Z,18.40
2018-09-21T21:44:13.438Z,18.40
2018-09-21T21:46:41.983Z,18.40
2018-09-21T21:49:10.703Z,18.40
2018-09-21T21:51:39.161Z,18.40
2018-09-21T21:54:07.417Z,18.40
2018-09-21T21:56:35.777Z,18.40
2018-09-21T21:59:04.284Z,18.30
2018-09-21T22:01:37.992Z,18.10
2018-09-21T22:04:06.735Z,18.00
2018-09-21T22:06:40.454Z,18.00
2018-09-21T22:09:10.456Z,18.00
2018-09-21T22:11:44.111Z,18.00
2018-09-21T22:14:13.183Z,18.10
2018-09-21T22:16:41.918Z,18.10
2018-09-21T22:19:11.230Z,18.10
2018-09-21T22:21:39.764Z,18.20
2018-09-21T22:24:08.436Z,18.20
2018-09-21T22:26:36.769Z,18.20
2018-09-21T22:29:05.152Z,18.20
2018-09-21T22:31:33.500Z,18.20
2018-09-21T22:34:01.832Z,18.10
2018-09-21T22:36:30.208Z,18.10
2018-09-21T22:38:58.889Z,18.10
2018-09-21T22:44:11.702Z,18.00
2018-09-21T22:46:40.257Z,18.10
2018-09-21T22:49:16.458Z,18.00
2018-09-21T22:51:44.829Z,18.00
2018-09-21T22:54:13.660Z,18.00
2018-09-21T22:56:42.279Z,18.10
2018-09-21T22:59:11.426Z,18.10
2018-09-21T23:01:40.152Z,18.10
2018-09-21T23:04:08.658Z,18.00
2018-09-21T23:06:37.259Z,18.00
2018-09-21T23:09:08.359Z,18.00
2018-09-21T23:11:36.856Z,17.90
2018-09-21T23:14:05.356Z,17.90
2018-09-21T23:16:34.026Z,17.80
2018-09-21T23:19:03.326Z,17.80
2018-09-21T23:21:31.609Z,17.80
2018-09-21T23:24:00.181Z,17.70
2018-09-21T23:26:28.835Z,17.70
2018-09-21T23:28:57.231Z,17.70
2018-09-21T23:31:25.831Z,17.70
2018-09-21T23:33:54.711Z,17.60
2018-09-21T23:36:23.104Z,17.40
2018-09-21T23:38:51.944Z,17.40
2018-09-21T23:41:20.195Z,17.40
2018-09-21T23:43:48.753Z,17.30
2018-09-21T23:46:17.179Z,17.30
2018-09-21T23:48:45.528Z,17.20
2018-09-21T23:51:14.070Z,17.20
2018-09-21T23:53:42.539Z,17.30
2018-09-21T23:56:10.948Z,17.30
2018-09-21T23:58:39.442Z,17.30
